sensor_id;sensor_type;location;lat;lon;timestamp;P1;durP1;ratioP1;P2;durP2;ratioP2
3922;SDS011;1976;51.694;6.256;2024-02-26T00:01:09;2.90;;;2.20;;
3922;SDS011;1976;51.694;6.256;2024-02-26T00:03:35;2.60;;;2.40;;
3922;SDS011;1976;51.694;6.256;2024-02-26T00:06:01;3.60;;;2.50;;
3922;SDS011;1976;51.694;6.256;2024-02-26T00:08:27;8.03;;;2.53;;
3922;SDS011;1976;51.694;6.256;2024-02-26T00:10:53;4.80;;;2.70;;
3922;SDS011;1976;51.694;6.256;2024-02-26T00:13:19;3.73;;;2.07;;
3922;SDS011;1976;51.694;6.256;2024-02-26T00:15:45;2.53;;;2.33;;
3922;SDS011;1976;51.694;6.256;2024-02-26T00:18:11;2.73;;;2.50;;
3922;SDS011;1976;51.694;6.256;2024-02-26T00:20:36;2.40;;;2.20;;
3922;SDS011;1976;51.694;6.256;2024-02-26T00:23:02;2.77;;;2.57;;
3922;SDS011;1976;51.694;6.256;2024-02-26T00:25:27;3.10;;;2.63;;
3922;SDS011;1976;51.694;6.256;2024-02-26T00:27:53;5.90;;;2.43;;
3922;SDS011;1976;51.694;6.256;2024-02-26T00:30:19;2.40;;;2.20;;
3922;SDS011;1976;51.694;6.256;2024-02-26T00:32:44;2.77;;;2.57;;
3922;SDS011;1976;51.694;6.256;2024-02-26T00:35:10;11.57;;;2.87;;
3922;SDS011;1976;51.694;6.256;2024-02-26T00:37:35;3.07;;;2.77;;
3922;SDS011;1976;51.694;6.256;2024-02-26T00:40:01;3.23;;;2.47;;
3922;SDS011;1976;51.694;6.256;2024-02-26T00:42:26;3.07;;;2.37;;
3922;SDS011;1976;51.694;6.256;2024-02-26T00:44:52;3.67;;;2.40;;
3922;SDS011;1976;51.694;6.256;2024-02-26T00:47:17;2.73;;;2.50;;
3922;SDS011;1976;51.694;6.256;2024-02-26T00:49:43;4.90;;;4.40;;
3922;SDS011;1976;51.694;6.256;2024-02-26T00:52:09;3.00;;;2.77;;
3922;SDS011;1976;51.694;6.256;2024-02-26T00:54:34;2.70;;;2.20;;
3922;SDS011;1976;51.694;6.256;2024-02-26T00:57:00;3.33;;;2.30;;
3922;SDS011;1976;51.694;6.256;2024-02-26T00:59:25;3.40;;;2.67;;
3922;SDS011;1976;51.694;6.256;2024-02-26T01:01:51;2.50;;;2.30;;
3922;SDS011;1976;51.694;6.256;2024-02-26T01:04:16;5.20;;;3.03;;
3922;SDS011;1976;51.694;6.256;2024-02-26T01:06:42;4.60;;;2.70;;
3922;SDS011;1976;51.694;6.256;2024-02-26T01:09:07;3.63;;;2.93;;
3922;SDS011;1976;51.694;6.256;2024-02-26T01:11:33;4.03;;;3.00;;
3922;SDS011;1976;51.694;6.256;2024-02-26T01:13:58;7.53;;;2.60;;
3922;SDS011;1976;51.694;6.256;2024-02-26T01:16:24;3.40;;;2.70;;
3922;SDS011;1976;51.694;6.256;2024-02-26T01:18:50;3.13;;;2.40;;
3922;SDS011;1976;51.694;6.256;2024-02-26T01:21:15;2.90;;;2.70;;
3922;SDS011;1976;51.694;6.256;2024-02-26T01:23:41;3.53;;;2.23;;
3922;SDS011;1976;51.694;6.256;2024-02-26T01:26:07;5.33;;;2.80;;
3922;SDS011;1976;51.694;6.256;2024-02-26T01:28:33;3.00;;;2.60;;
3922;SDS011;1976;51.694;6.256;2024-02-26T01:30:58;3.93;;;2.50;;
3922;SDS011;1976;51.694;6.256;2024-02-26T01:33:25;4.80;;;2.30;;
3922;SDS011;1976;51.694;6.256;2024-02-26T01:35:51;2.93;;;2.60;;
3922;SDS011;1976;51.694;6.256;2024-02-26T01:38:18;4.03;;;2.43;;
3922;SDS011;1976;51.694;6.256;2024-02-26T01:40:43;7.23;;;2.90;;
3922;SDS011;1976;51.694;6.256;2024-02-26T01:43:09;6.40;;;2.50;;
3922;SDS011;1976;51.694;6.256;2024-02-26T01:45:34;2.17;;;2.07;;
3922;SDS011;1976;51.694;6.256;2024-02-26T01:48:00;1.80;;;1.70;;
3922;SDS011;1976;51.694;6.256;2024-02-26T01:50:26;2.73;;;2.47;;
3922;SDS011;1976;51.694;6.256;2024-02-26T01:52:52;7.10;;;3.10;;
3922;SDS011;1976;51.694;6.256;2024-02-26T01:55:19;2.73;;;1.77;;
3922;SDS011;1976;51.694;6.256;2024-02-26T01:57:47;2.30;;;2.07;;
3922;SDS011;1976;51.694;6.256;2024-02-26T02:00:16;2.20;;;2.00;;
3922;SDS011;1976;51.694;6.256;2024-02-26T02:02:44;3.30;;;2.37;;
3922;SDS011;1976;51.694;6.256;2024-02-26T02:05:11;3.17;;;2.27;;
3922;SDS011;1976;51.694;6.256;2024-02-26T02:07:38;4.40;;;3.60;;
3922;SDS011;1976;51.694;6.256;2024-02-26T02:10:05;1.93;;;1.83;;
3922;SDS011;1976;51.694;6.256;2024-02-26T02:12:31;4.67;;;2.03;;
3922;SDS011;1976;51.694;6.256;2024-02-26T02:14:59;2.10;;;2.00;;
3922;SDS011;1976;51.694;6.256;2024-02-26T02:17:25;2.50;;;2.30;;
3922;SDS011;1976;51.694;6.256;2024-02-26T02:19:52;3.43;;;2.70;;
3922;SDS011;1976;51.694;6.256;2024-02-26T02:22:18;2.63;;;2.40;;
3922;SDS011;1976;51.694;6.256;2024-02-26T02:24:43;2.20;;;2.00;;
3922;SDS011;1976;51.694;6.256;2024-02-26T02:27:09;2.07;;;1.90;;
3922;SDS011;1976;51.694;6.256;2024-02-26T02:29:35;4.80;;;2.70;;
3922;SDS011;1976;51.694;6.256;2024-02-26T02:32:01;2.20;;;2.10;;
3922;SDS011;1976;51.694;6.256;2024-02-26T02:34:28;4.30;;;2.43;;
3922;SDS011;1976;51.694;6.256;2024-02-26T02:36:54;4.90;;;2.80;;
3922;SDS011;1976;51.694;6.256;2024-02-26T02:39:20;2.60;;;2.40;;
3922;SDS011;1976;51.694;6.256;2024-02-26T02:41:46;3.03;;;2.60;;
3922;SDS011;1976;51.694;6.256;2024-02-26T02:44:11;5.43;;;2.60;;
3922;SDS011;1976;51.694;6.256;2024-02-26T02:46:37;2.37;;;2.17;;
3922;SDS011;1976;51.694;6.256;2024-02-26T02:49:03;2.80;;;2.40;;
3922;SDS011;1976;51.694;6.256;2024-02-26T02:51:29;3.93;;;2.30;;
3922;SDS011;1976;51.694;6.256;2024-02-26T02:53:54;3.07;;;2.00;;
3922;SDS011;1976;51.694;6.256;2024-02-26T02:56:20;7.00;;;2.50;;
3922;SDS011;1976;51.694;6.256;2024-02-26T02:58:46;4.20;;;2.77;;
3922;SDS011;1976;51.694;6.256;2024-02-26T03:01:13;2.10;;;1.93;;
3922;SDS011;1976;51.694;6.256;2024-02-26T03:03:38;2.30;;;2.10;;
3922;SDS011;1976;51.694;6.256;2024-02-26T03:06:04;3.00;;;2.40;;
3922;SDS011;1976;51.694;6.256;2024-02-26T03:08:29;3.47;;;2.67;;
3922;SDS011;1976;51.694;6.256;2024-02-26T03:10:55;8.60;;;2.67;;
3922;SDS011;1976;51.694;6.256;2024-02-26T03:13:23;4.60;;;2.50;;
3922;SDS011;1976;51.694;6.256;2024-02-26T03:15:48;3.80;;;2.13;;
3922;SDS011;1976;51.694;6.256;2024-02-26T03:18:14;2.90;;;2.53;;
3922;SDS011;1976;51.694;6.256;2024-02-26T03:20:39;2.50;;;2.30;;
3922;SDS011;1976;51.694;6.256;2024-02-26T03:23:05;2.97;;;2.77;;
3922;SDS011;1976;51.694;6.256;2024-02-26T03:25:30;8.20;;;2.37;;
3922;SDS011;1976;51.694;6.256;2024-02-26T03:27:56;3.20;;;2.60;;
3922;SDS011;1976;51.694;6.256;2024-02-26T03:30:21;2.70;;;2.50;;
3922;SDS011;1976;51.694;6.256;2024-02-26T03:32:47;2.50;;;2.30;;
3922;SDS011;1976;51.694;6.256;2024-02-26T03:35:13;3.00;;;2.70;;
3922;SDS011;1976;51.694;6.256;2024-02-26T03:37:38;4.20;;;2.53;;
3922;SDS011;1976;51.694;6.256;2024-02-26T03:40:04;6.43;;;2.70;;
3922;SDS011;1976;51.694;6.256;2024-02-26T03:42:31;4.03;;;2.67;;
3922;SDS011;1976;51.694;6.256;2024-02-26T03:44:56;5.37;;;2.70;;
3922;SDS011;1976;51.694;6.256;2024-02-26T03:47:22;2.80;;;2.50;;
3922;SDS011;1976;51.694;6.256;2024-02-26T03:49:47;3.53;;;2.70;;
3922;SDS011;1976;51.694;6.256;2024-02-26T03:52:13;4.50;;;3.07;;
3922;SDS011;1976;51.694;6.256;2024-02-26T03:54:39;3.30;;;2.23;;
3922;SDS011;1976;51.694;6.256;2024-02-26T03:57:05;3.20;;;2.50;;
3922;SDS011;1976;51.694;6.256;2024-02-26T03:59:31;3.97;;;2.33;;
3922;SDS011;1976;51.694;6.256;2024-02-26T04:01:56;3.10;;;2.80;;
3922;SDS011;1976;51.694;6.256;2024-02-26T04:04:22;2.37;;;2.10;;
3922;SDS011;1976;51.694;6.256;2024-02-26T04:06:47;2.50;;;2.30;;
3922;SDS011;1976;51.694;6.256;2024-02-26T04:09:13;3.00;;;2.00;;
3922;SDS011;1976;51.694;6.256;2024-02-26T04:11:39;2.20;;;2.03;;
3922;SDS011;1976;51.694;6.256;2024-02-26T04:14:05;2.37;;;2.17;;
3922;SDS011;1976;51.694;6.256;2024-02-26T04:16:33;2.23;;;2.03;;
3922;SDS011;1976;51.694;6.256;2024-02-26T04:19:00;2.00;;;1.90;;
3922;SDS011;1976;51.694;6.256;2024-02-26T04:21:26;3.30;;;2.40;;
3922;SDS011;1976;51.694;6.256;2024-02-26T04:23:51;3.47;;;2.43;;
3922;SDS011;1976;51.694;6.256;2024-02-26T04:26:20;2.73;;;2.53;;
3922;SDS011;1976;51.694;6.256;2024-02-26T04:28:46;3.07;;;2.27;;
3922;SDS011;1976;51.694;6.256;2024-02-26T04:31:12;4.20;;;2.00;;
3922;SDS011;1976;51.694;6.256;2024-02-26T04:33:37;2.03;;;1.90;;
3922;SDS011;1976;51.694;6.256;2024-02-26T04:36:03;2.67;;;2.47;;
3922;SDS011;1976;51.694;6.256;2024-02-26T04:38:29;2.33;;;2.13;;
3922;SDS011;1976;51.694;6.256;2024-02-26T04:40:54;2.27;;;2.07;;
3922;SDS011;1976;51.694;6.256;2024-02-26T04:43:20;2.30;;;2.10;;
3922;SDS011;1976;51.694;6.256;2024-02-26T04:45:45;1.90;;;1.80;;
3922;SDS011;1976;51.694;6.256;2024-02-26T04:48:11;7.63;;;2.00;;
3922;SDS011;1976;51.694;6.256;2024-02-26T04:50:36;2.40;;;2.20;;
3922;SDS011;1976;51.694;6.256;2024-02-26T04:53:02;1.67;;;1.57;;
3922;SDS011;1976;51.694;6.256;2024-02-26T04:55:28;2.03;;;1.83;;
3922;SDS011;1976;51.694;6.256;2024-02-26T04:57:53;2.60;;;2.40;;
3922;SDS011;1976;51.694;6.256;2024-02-26T05:00:19;2.50;;;2.30;;
3922;SDS011;1976;51.694;6.256;2024-02-26T05:02:44;1.80;;;1.70;;
3922;SDS011;1976;51.694;6.256;2024-02-26T05:05:10;2.17;;;2.00;;
3922;SDS011;1976;51.694;6.256;2024-02-26T05:07:40;2.40;;;2.20;;
3922;SDS011;1976;51.694;6.256;2024-02-26T05:10:10;1.80;;;1.70;;
3922;SDS011;1976;51.694;6.256;2024-02-26T05:12:36;1.90;;;1.80;;
3922;SDS011;1976;51.694;6.256;2024-02-26T05:15:02;4.30;;;2.03;;
3922;SDS011;1976;51.694;6.256;2024-02-26T05:17:28;2.87;;;2.00;;
3922;SDS011;1976;51.694;6.256;2024-02-26T05:19:53;2.13;;;2.00;;
3922;SDS011;1976;51.694;6.256;2024-02-26T05:22:19;3.57;;;1.87;;
3922;SDS011;1976;51.694;6.256;2024-02-26T05:24:45;1.97;;;1.87;;
3922;SDS011;1976;51.694;6.256;2024-02-26T05:27:10;2.20;;;2.00;;
3922;SDS011;1976;51.694;6.256;2024-02-26T05:29:37;2.00;;;1.90;;
3922;SDS011;1976;51.694;6.256;2024-02-26T05:32:03;2.63;;;2.00;;
3922;SDS011;1976;51.694;6.256;2024-02-26T05:34:29;2.03;;;1.93;;
3922;SDS011;1976;51.694;6.256;2024-02-26T05:36:55;1.77;;;1.67;;
3922;SDS011;1976;51.694;6.256;2024-02-26T05:39:21;1.70;;;1.60;;
3922;SDS011;1976;51.694;6.256;2024-02-26T05:41:46;2.67;;;2.00;;
3922;SDS011;1976;51.694;6.256;2024-02-26T05:44:12;2.13;;;2.03;;
3922;SDS011;1976;51.694;6.256;2024-02-26T05:46:38;2.33;;;2.23;;
3922;SDS011;1976;51.694;6.256;2024-02-26T05:49:03;2.10;;;1.90;;
3922;SDS011;1976;51.694;6.256;2024-02-26T05:51:29;2.13;;;1.40;;
3922;SDS011;1976;51.694;6.256;2024-02-26T05:53:55;1.77;;;1.67;;
3922;SDS011;1976;51.694;6.256;2024-02-26T05:56:21;2.17;;;1.97;;
3922;SDS011;1976;51.694;6.256;2024-02-26T05:58:47;3.87;;;2.20;;
3922;SDS011;1976;51.694;6.256;2024-02-26T06:01:13;1.80;;;1.70;;
3922;SDS011;1976;51.694;6.256;2024-02-26T06:03:40;2.43;;;2.23;;
3922;SDS011;1976;51.694;6.256;2024-02-26T06:06:06;2.57;;;2.00;;
3922;SDS011;1976;51.694;6.256;2024-02-26T06:08:31;2.23;;;2.03;;
3922;SDS011;1976;51.694;6.256;2024-02-26T06:10:57;2.80;;;2.20;;
3922;SDS011;1976;51.694;6.256;2024-02-26T06:13:22;3.13;;;2.50;;
3922;SDS011;1976;51.694;6.256;2024-02-26T06:15:48;3.03;;;2.73;;
3922;SDS011;1976;51.694;6.256;2024-02-26T06:18:14;2.60;;;2.40;;
3922;SDS011;1976;51.694;6.256;2024-02-26T06:20:39;8.30;;;2.27;;
3922;SDS011;1976;51.694;6.256;2024-02-26T06:23:05;2.27;;;2.10;;
3922;SDS011;1976;51.694;6.256;2024-02-26T06:25:30;3.30;;;2.93;;
3922;SDS011;1976;51.694;6.256;2024-02-26T06:27:56;3.57;;;3.00;;
3922;SDS011;1976;51.694;6.256;2024-02-26T06:30:21;2.73;;;2.53;;
3922;SDS011;1976;51.694;6.256;2024-02-26T06:32:47;2.60;;;2.40;;
3922;SDS011;1976;51.694;6.256;2024-02-26T06:35:12;4.07;;;2.87;;
3922;SDS011;1976;51.694;6.256;2024-02-26T06:37:38;3.10;;;2.90;;
3922;SDS011;1976;51.694;6.256;2024-02-26T06:40:04;6.83;;;3.00;;
3922;SDS011;1976;51.694;6.256;2024-02-26T06:42:31;6.60;;;2.63;;
3922;SDS011;1976;51.694;6.256;2024-02-26T06:44:59;3.23;;;2.50;;
3922;SDS011;1976;51.694;6.256;2024-02-26T06:47:25;4.70;;;2.80;;
3922;SDS011;1976;51.694;6.256;2024-02-26T06:49:51;2.70;;;2.50;;
3922;SDS011;1976;51.694;6.256;2024-02-26T06:52:16;2.87;;;2.67;;
3922;SDS011;1976;51.694;6.256;2024-02-26T06:54:42;3.13;;;2.67;;
3922;SDS011;1976;51.694;6.256;2024-02-26T06:57:07;3.30;;;2.87;;
3922;SDS011;1976;51.694;6.256;2024-02-26T06:59:33;3.00;;;2.80;;
3922;SDS011;1976;51.694;6.256;2024-02-26T07:01:58;5.17;;;3.10;;
3922;SDS011;1976;51.694;6.256;2024-02-26T07:04:24;3.43;;;2.70;;
3922;SDS011;1976;51.694;6.256;2024-02-26T07:06:49;2.53;;;2.33;;
3922;SDS011;1976;51.694;6.256;2024-02-26T07:09:15;2.90;;;2.67;;
3922;SDS011;1976;51.694;6.256;2024-02-26T07:11:40;4.43;;;2.90;;
3922;SDS011;1976;51.694;6.256;2024-02-26T07:14:09;2.50;;;2.30;;
3922;SDS011;1976;51.694;6.256;2024-02-26T07:16:35;3.13;;;2.53;;
3922;SDS011;1976;51.694;6.256;2024-02-26T07:19:01;2.70;;;2.50;;
3922;SDS011;1976;51.694;6.256;2024-02-26T07:21:27;5.10;;;2.40;;
3922;SDS011;1976;51.694;6.256;2024-02-26T07:23:53;2.23;;;2.00;;
3922;SDS011;1976;51.694;6.256;2024-02-26T07:26:19;2.90;;;2.60;;
3922;SDS011;1976;51.694;6.256;2024-02-26T07:28:44;5.53;;;2.50;;
3922;SDS011;1976;51.694;6.256;2024-02-26T07:31:10;2.70;;;2.30;;
3922;SDS011;1976;51.694;6.256;2024-02-26T07:33:36;3.23;;;2.93;;
3922;SDS011;1976;51.694;6.256;2024-02-26T07:36:02;2.57;;;2.37;;
3922;SDS011;1976;51.694;6.256;2024-02-26T07:38:27;3.60;;;2.90;;
3922;SDS011;1976;51.694;6.256;2024-02-26T07:40:53;3.67;;;2.77;;
3922;SDS011;1976;51.694;6.256;2024-02-26T07:43:19;4.83;;;2.47;;
3922;SDS011;1976;51.694;6.256;2024-02-26T07:45:44;4.10;;;2.80;;
3922;SDS011;1976;51.694;6.256;2024-02-26T07:48:10;4.90;;;3.10;;
3922;SDS011;1976;51.694;6.256;2024-02-26T07:50:36;2.30;;;2.20;;
3922;SDS011;1976;51.694;6.256;2024-02-26T07:53:01;3.97;;;3.13;;
3922;SDS011;1976;51.694;6.256;2024-02-26T07:55:27;3.00;;;2.70;;
3922;SDS011;1976;51.694;6.256;2024-02-26T07:57:52;3.30;;;2.73;;
3922;SDS011;1976;51.694;6.256;2024-02-26T08:00:18;3.37;;;3.07;;
3922;SDS011;1976;51.694;6.256;2024-02-26T08:02:44;7.40;;;3.10;;
3922;SDS011;1976;51.694;6.256;2024-02-26T08:05:10;4.67;;;2.97;;
3922;SDS011;1976;51.694;6.256;2024-02-26T08:07:35;3.03;;;2.80;;
3922;SDS011;1976;51.694;6.256;2024-02-26T08:10:01;3.10;;;2.90;;
3922;SDS011;1976;51.694;6.256;2024-02-26T08:12:27;3.83;;;3.50;;
3922;SDS011;1976;51.694;6.256;2024-02-26T08:14:52;3.73;;;3.40;;
3922;SDS011;1976;51.694;6.256;2024-02-26T08:17:18;3.43;;;3.10;;
3922;SDS011;1976;51.694;6.256;2024-02-26T08:19:43;3.07;;;2.80;;
3922;SDS011;1976;51.694;6.256;2024-02-26T08:22:09;3.20;;;3.00;;
3922;SDS011;1976;51.694;6.256;2024-02-26T08:24:40;2.90;;;2.70;;
3922;SDS011;1976;51.694;6.256;2024-02-26T08:27:09;11.00;;;3.20;;
3922;SDS011;1976;51.694;6.256;2024-02-26T08:29:34;3.03;;;2.83;;
3922;SDS011;1976;51.694;6.256;2024-02-26T08:32:00;4.17;;;3.77;;
3922;SDS011;1976;51.694;6.256;2024-02-26T08:34:26;4.30;;;3.40;;
3922;SDS011;1976;51.694;6.256;2024-02-26T08:36:51;3.80;;;3.40;;
3922;SDS011;1976;51.694;6.256;2024-02-26T08:39:17;3.07;;;2.87;;
3922;SDS011;1976;51.694;6.256;2024-02-26T08:41:43;6.17;;;3.50;;
3922;SDS011;1976;51.694;6.256;2024-02-26T08:44:10;4.37;;;3.97;;
3922;SDS011;1976;51.694;6.256;2024-02-26T08:46:36;3.53;;;3.23;;
3922;SDS011;1976;51.694;6.256;2024-02-26T08:49:01;3.63;;;3.23;;
3922;SDS011;1976;51.694;6.256;2024-02-26T08:51:27;3.43;;;3.13;;
3922;SDS011;1976;51.694;6.256;2024-02-26T08:53:52;3.43;;;3.17;;
3922;SDS011;1976;51.694;6.256;2024-02-26T08:56:18;5.40;;;3.37;;
3922;SDS011;1976;51.694;6.256;2024-02-26T08:58:46;3.53;;;3.27;;
3922;SDS011;1976;51.694;6.256;2024-02-26T09:01:14;3.90;;;3.60;;
3922;SDS011;1976;51.694;6.256;2024-02-26T09:03:39;3.63;;;3.33;;
3922;SDS011;1976;51.694;6.256;2024-02-26T09:06:05;7.40;;;3.40;;
3922;SDS011;1976;51.694;6.256;2024-02-26T09:08:31;4.33;;;3.83;;
3922;SDS011;1976;51.694;6.256;2024-02-26T09:10:57;3.70;;;3.40;;
3922;SDS011;1976;51.694;6.256;2024-02-26T09:13:23;3.63;;;3.40;;
3922;SDS011;1976;51.694;6.256;2024-02-26T09:15:49;4.80;;;3.43;;
3922;SDS011;1976;51.694;6.256;2024-02-26T09:18:14;3.80;;;3.50;;
3922;SDS011;1976;51.694;6.256;2024-02-26T09:20:40;3.30;;;3.10;;
3922;SDS011;1976;51.694;6.256;2024-02-26T09:23:06;4.70;;;3.23;;
3922;SDS011;1976;51.694;6.256;2024-02-26T09:25:32;5.07;;;3.87;;
3922;SDS011;1976;51.694;6.256;2024-02-26T09:27:58;9.70;;;3.93;;
3922;SDS011;1976;51.694;6.256;2024-02-26T09:30:24;10.23;;;3.57;;
3922;SDS011;1976;51.694;6.256;2024-02-26T09:32:49;4.67;;;3.20;;
3922;SDS011;1976;51.694;6.256;2024-02-26T09:35:15;3.53;;;3.23;;
3922;SDS011;1976;51.694;6.256;2024-02-26T09:37:41;3.40;;;3.10;;
3922;SDS011;1976;51.694;6.256;2024-02-26T09:40:08;4.70;;;3.57;;
3922;SDS011;1976;51.694;6.256;2024-02-26T09:42:40;3.80;;;3.10;;
3922;SDS011;1976;51.694;6.256;2024-02-26T09:45:09;6.50;;;3.43;;
3922;SDS011;1976;51.694;6.256;2024-02-26T09:47:42;4.10;;;3.23;;
3922;SDS011;1976;51.694;6.256;2024-02-26T09:50:08;3.50;;;3.20;;
3922;SDS011;1976;51.694;6.256;2024-02-26T09:52:34;3.73;;;3.43;;
3922;SDS011;1976;51.694;6.256;2024-02-26T09:55:03;4.90;;;4.20;;
3922;SDS011;1976;51.694;6.256;2024-02-26T09:57:29;3.60;;;3.30;;
3922;SDS011;1976;51.694;6.256;2024-02-26T09:59:58;5.33;;;3.30;;
3922;SDS011;1976;51.694;6.256;2024-02-26T10:02:27;4.30;;;3.63;;
3922;SDS011;1976;51.694;6.256;2024-02-26T10:04:53;4.20;;;3.60;;
3922;SDS011;1976;51.694;6.256;2024-02-26T10:07:21;3.87;;;3.47;;
3922;SDS011;1976;51.694;6.256;2024-02-26T10:09:47;3.90;;;3.60;;
3922;SDS011;1976;51.694;6.256;2024-02-26T10:12:13;3.23;;;2.97;;
3922;SDS011;1976;51.694;6.256;2024-02-26T10:14:41;7.30;;;3.57;;
3922;SDS011;1976;51.694;6.256;2024-02-26T10:17:07;3.63;;;3.33;;
3922;SDS011;1976;51.694;6.256;2024-02-26T10:19:33;3.37;;;3.07;;
3922;SDS011;1976;51.694;6.256;2024-02-26T10:21:59;4.13;;;3.67;;
3922;SDS011;1976;51.694;6.256;2024-02-26T10:24:26;2.83;;;2.63;;
3922;SDS011;1976;51.694;6.256;2024-02-26T10:26:54;3.40;;;3.07;;
3922;SDS011;1976;51.694;6.256;2024-02-26T10:29:20;5.97;;;4.10;;
3922;SDS011;1976;51.694;6.256;2024-02-26T10:31:46;4.70;;;3.60;;
3922;SDS011;1976;51.694;6.256;2024-02-26T10:34:12;3.30;;;3.07;;
3922;SDS011;1976;51.694;6.256;2024-02-26T10:36:40;3.60;;;3.20;;
3922;SDS011;1976;51.694;6.256;2024-02-26T10:39:06;6.00;;;3.50;;
3922;SDS011;1976;51.694;6.256;2024-02-26T10:41:35;4.63;;;4.13;;
3922;SDS011;1976;51.694;6.256;2024-02-26T10:44:01;4.93;;;4.17;;
3922;SDS011;1976;51.694;6.256;2024-02-26T10:46:27;5.43;;;4.17;;
3922;SDS011;1976;51.694;6.256;2024-02-26T10:48:52;4.13;;;3.60;;
3922;SDS011;1976;51.694;6.256;2024-02-26T10:51:20;4.47;;;3.90;;
3922;SDS011;1976;51.694;6.256;2024-02-26T10:53:49;5.23;;;3.90;;
3922;SDS011;1976;51.694;6.256;2024-02-26T10:56:21;6.23;;;4.70;;
3922;SDS011;1976;51.694;6.256;2024-02-26T10:58:50;5.53;;;4.53;;
3922;SDS011;1976;51.694;6.256;2024-02-26T11:01:17;4.97;;;4.47;;
3922;SDS011;1976;51.694;6.256;2024-02-26T11:03:44;5.73;;;4.40;;
3922;SDS011;1976;51.694;6.256;2024-02-26T11:06:10;6.27;;;5.20;;
3922;SDS011;1976;51.694;6.256;2024-02-26T11:08:37;7.73;;;4.70;;
3922;SDS011;1976;51.694;6.256;2024-02-26T11:11:04;6.23;;;4.30;;
3922;SDS011;1976;51.694;6.256;2024-02-26T11:13:30;5.43;;;4.93;;
3922;SDS011;1976;51.694;6.256;2024-02-26T11:15:57;6.50;;;5.30;;
3922;SDS011;1976;51.694;6.256;2024-02-26T11:18:23;7.43;;;4.97;;
3922;SDS011;1976;51.694;6.256;2024-02-26T11:20:52;6.80;;;5.30;;
3922;SDS011;1976;51.694;6.256;2024-02-26T11:23:22;7.53;;;5.33;;
3922;SDS011;1976;51.694;6.256;2024-02-26T11:25:48;7.03;;;5.37;;
3922;SDS011;1976;51.694;6.256;2024-02-26T11:28:19;7.87;;;5.80;;
3922;SDS011;1976;51.694;6.256;2024-02-26T11:30:46;6.73;;;5.70;;
3922;SDS011;1976;51.694;6.256;2024-02-26T11:33:14;5.40;;;4.87;;
3922;SDS011;1976;51.694;6.256;2024-02-26T11:35:40;7.27;;;6.10;;
3922;SDS011;1976;51.694;6.256;2024-02-26T11:38:06;8.53;;;6.73;;
3922;SDS011;1976;51.694;6.256;2024-02-26T11:40:33;11.90;;;6.50;;
3922;SDS011;1976;51.694;6.256;2024-02-26T11:43:03;7.23;;;5.77;;
3922;SDS011;1976;51.694;6.256;2024-02-26T11:48:14;9.87;;;6.67;;
3922;SDS011;1976;51.694;6.256;2024-02-26T11:50:42;12.00;;;6.37;;
3922;SDS011;1976;51.694;6.256;2024-02-26T11:53:26;7.60;;;6.63;;
3922;SDS011;1976;51.694;6.256;2024-02-26T11:58:40;9.27;;;6.20;;
3922;SDS011;1976;51.694;6.256;2024-02-26T12:01:35;11.10;;;7.10;;
3922;SDS011;1976;51.694;6.256;2024-02-26T12:04:02;12.80;;;6.50;;
3922;SDS011;1976;51.694;6.256;2024-02-26T12:06:39;9.60;;;6.40;;
3922;SDS011;1976;51.694;6.256;2024-02-26T12:09:07;10.03;;;7.00;;
3922;SDS011;1976;51.694;6.256;2024-02-26T12:11:34;9.07;;;6.67;;
3922;SDS011;1976;51.694;6.256;2024-02-26T12:14:03;10.43;;;6.40;;
3922;SDS011;1976;51.694;6.256;2024-02-26T12:19:06;9.00;;;6.60;;
3922;SDS011;1976;51.694;6.256;2024-02-26T12:21:37;15.53;;;9.00;;
3922;SDS011;1976;51.694;6.256;2024-02-26T12:24:13;12.50;;;7.97;;
3922;SDS011;1976;51.694;6.256;2024-02-26T12:26:39;10.83;;;7.13;;
3922;SDS011;1976;51.694;6.256;2024-02-26T12:29:05;12.13;;;7.77;;
3922;SDS011;1976;51.694;6.256;2024-02-26T12:31:32;12.63;;;8.47;;
3922;SDS011;1976;51.694;6.256;2024-02-26T12:33:59;12.40;;;8.73;;
3922;SDS011;1976;51.694;6.256;2024-02-26T12:36:25;13.80;;;9.00;;
3922;SDS011;1976;51.694;6.256;2024-02-26T12:38:51;13.47;;;8.13;;
3922;SDS011;1976;51.694;6.256;2024-02-26T12:41:17;14.70;;;7.77;;
3922;SDS011;1976;51.694;6.256;2024-02-26T12:43:43;16.80;;;9.40;;
3922;SDS011;1976;51.694;6.256;2024-02-26T12:46:09;16.43;;;8.97;;
3922;SDS011;1976;51.694;6.256;2024-02-26T12:48:36;13.03;;;7.87;;
3922;SDS011;1976;51.694;6.256;2024-02-26T12:51:01;13.23;;;8.20;;
3922;SDS011;1976;51.694;6.256;2024-02-26T12:53:27;14.90;;;8.90;;
3922;SDS011;1976;51.694;6.256;2024-02-26T12:55:56;14.63;;;9.00;;
3922;SDS011;1976;51.694;6.256;2024-02-26T12:58:22;13.47;;;8.40;;
3922;SDS011;1976;51.694;6.256;2024-02-26T13:00:52;13.37;;;8.70;;
3922;SDS011;1976;51.694;6.256;2024-02-26T13:03:19;18.97;;;8.47;;
3922;SDS011;1976;51.694;6.256;2024-02-26T13:05:47;15.20;;;8.20;;
3922;SDS011;1976;51.694;6.256;2024-02-26T13:08:19;17.60;;;8.77;;
3922;SDS011;1976;51.694;6.256;2024-02-26T13:10:46;13.03;;;8.60;;
3922;SDS011;1976;51.694;6.256;2024-02-26T13:13:14;14.23;;;8.60;;
3922;SDS011;1976;51.694;6.256;2024-02-26T13:15:43;15.47;;;9.03;;
3922;SDS011;1976;51.694;6.256;2024-02-26T13:18:09;15.23;;;9.33;;
3922;SDS011;1976;51.694;6.256;2024-02-26T13:20:36;16.40;;;9.47;;
3922;SDS011;1976;51.694;6.256;2024-02-26T13:25:28;12.00;;;8.27;;
3922;SDS011;1976;51.694;6.256;2024-02-26T13:28:04;15.07;;;8.67;;
3922;SDS011;1976;51.694;6.256;2024-02-26T13:30:41;13.27;;;7.50;;
3922;SDS011;1976;51.694;6.256;2024-02-26T13:33:10;15.70;;;7.90;;
3922;SDS011;1976;51.694;6.256;2024-02-26T13:35:37;13.20;;;7.90;;
3922;SDS011;1976;51.694;6.256;2024-02-26T13:38:06;11.63;;;7.00;;
3922;SDS011;1976;51.694;6.256;2024-02-26T13:40:32;11.03;;;7.33;;
3922;SDS011;1976;51.694;6.256;2024-02-26T13:42:59;10.17;;;6.67;;
3922;SDS011;1976;51.694;6.256;2024-02-26T13:45:25;10.43;;;6.40;;
3922;SDS011;1976;51.694;6.256;2024-02-26T13:47:51;11.90;;;6.63;;
3922;SDS011;1976;51.694;6.256;2024-02-26T13:50:16;11.67;;;7.97;;
3922;SDS011;1976;51.694;6.256;2024-02-26T13:52:46;12.17;;;6.73;;
3922;SDS011;1976;51.694;6.256;2024-02-26T13:55:12;14.07;;;7.53;;
3922;SDS011;1976;51.694;6.256;2024-02-26T13:57:39;12.50;;;6.97;;
3922;SDS011;1976;51.694;6.256;2024-02-26T14:00:07;9.30;;;5.73;;
3922;SDS011;1976;51.694;6.256;2024-02-26T14:02:34;7.30;;;6.03;;
3922;SDS011;1976;51.694;6.256;2024-02-26T14:05:01;11.73;;;7.23;;
3922;SDS011;1976;51.694;6.256;2024-02-26T14:07:29;7.90;;;6.37;;
3922;SDS011;1976;51.694;6.256;2024-02-26T14:09:57;9.50;;;6.90;;
3922;SDS011;1976;51.694;6.256;2024-02-26T14:12:22;10.00;;;5.90;;
3922;SDS011;1976;51.694;6.256;2024-02-26T14:14:48;12.13;;;7.30;;
3922;SDS011;1976;51.694;6.256;2024-02-26T14:17:14;9.97;;;5.80;;
3922;SDS011;1976;51.694;6.256;2024-02-26T14:19:40;9.87;;;5.80;;
3922;SDS011;1976;51.694;6.256;2024-02-26T14:22:10;10.53;;;6.27;;
3922;SDS011;1976;51.694;6.256;2024-02-26T14:24:36;8.97;;;6.20;;
3922;SDS011;1976;51.694;6.256;2024-02-26T14:27:02;8.73;;;6.60;;
3922;SDS011;1976;51.694;6.256;2024-02-26T14:29:29;10.60;;;6.33;;
3922;SDS011;1976;51.694;6.256;2024-02-26T14:31:54;9.20;;;7.03;;
3922;SDS011;1976;51.694;6.256;2024-02-26T14:34:21;7.67;;;5.90;;
3922;SDS011;1976;51.694;6.256;2024-02-26T14:36:47;7.03;;;5.43;;
3922;SDS011;1976;51.694;6.256;2024-02-26T14:39:12;8.70;;;6.70;;
3922;SDS011;1976;51.694;6.256;2024-02-26T14:41:39;8.43;;;6.10;;
3922;SDS011;1976;51.694;6.256;2024-02-26T14:44:05;9.10;;;6.90;;
3922;SDS011;1976;51.694;6.256;2024-02-26T14:46:30;9.27;;;6.97;;
3922;SDS011;1976;51.694;6.256;2024-02-26T14:48:56;9.00;;;6.67;;
3922;SDS011;1976;51.694;6.256;2024-02-26T14:51:22;9.63;;;6.00;;
3922;SDS011;1976;51.694;6.256;2024-02-26T14:53:48;12.40;;;7.20;;
3922;SDS011;1976;51.694;6.256;2024-02-26T14:56:14;11.57;;;6.70;;
3922;SDS011;1976;51.694;6.256;2024-02-26T14:58:39;11.13;;;7.33;;
3922;SDS011;1976;51.694;6.256;2024-02-26T15:01:05;11.43;;;7.13;;
3922;SDS011;1976;51.694;6.256;2024-02-26T15:03:31;8.13;;;6.40;;
3922;SDS011;1976;51.694;6.256;2024-02-26T15:05:56;8.17;;;6.20;;
3922;SDS011;1976;51.694;6.256;2024-02-26T15:08:22;11.30;;;7.13;;
3922;SDS011;1976;51.694;6.256;2024-02-26T15:10:47;11.50;;;7.25;;
3922;SDS011;1976;51.694;6.256;2024-02-26T15:13:13;14.07;;;8.00;;
3922;SDS011;1976;51.694;6.256;2024-02-26T15:15:45;12.07;;;7.07;;
3922;SDS011;1976;51.694;6.256;2024-02-26T15:18:11;7.13;;;6.10;;